createdAt,value
2022-11-09T00:05:34.743Z,100.00
2022-11-09T00:15:39.465Z,100.00
2022-11-09T00:25:41.474Z,100.00
2022-11-09T00:35:43.691Z,100.00
2022-11-09T00:45:47.545Z,100.00
2022-11-09T00:56:02.404Z,100.00
2022-11-09T01:06:06.585Z,100.00
2022-11-09T01:16:19.785Z,100.00
2022-11-09T01:26:25.493Z,100.00
2022-11-09T01:36:30.802Z,100.00
2022-11-09T01:46:50.909Z,100.00
2022-11-09T01:56:56.769Z,100.00
2022-11-09T02:07:00.929Z,100.00
2022-11-09T02:17:05.979Z,100.00
2022-11-09T02:27:16.404Z,100.00
2022-11-09T02:37:40.541Z,100.00
2022-11-09T02:47:46.082Z,100.00
2022-11-09T02:57:51.679Z,100.00
2022-11-09T03:08:02.696Z,100.00
2022-11-09T03:18:11.895Z,100.00
2022-11-09T03:28:20.047Z,100.00
2022-11-09T03:38:24.605Z,100.00
2022-11-09T03:48:34.402Z,100.00
2022-11-09T03:58:38.669Z,100.00
2022-11-09T04:09:01.593Z,100.00
2022-11-09T04:19:03.698Z,100.00
2022-11-09T04:29:07.266Z,100.00
2022-11-09T04:39:16.557Z,100.00
2022-11-09T04:49:25.665Z,100.00
2022-11-09T04:59:32.880Z,100.00
2022-11-09T05:09:35.820Z,100.00
2022-11-09T05:19:39.144Z,100.00
2022-11-09T05:29:44.842Z,100.00
2022-11-09T05:39:51.907Z,100.00
2022-11-09T05:49:54.261Z,100.00
2022-11-09T06:00:00.090Z,100.00
2022-11-09T06:10:07.448Z,100.00
2022-11-09T06:20:15.939Z,100.00
2022-11-09T06:30:17.989Z,100.00
2022-11-09T06:40:24.005Z,100.00
2022-11-09T06:50:31.546Z,100.00
2022-11-09T07:00:41.019Z,100.00
2022-11-09T07:10:47.110Z,100.00
2022-11-09T07:20:51.668Z,100.00
2022-11-09T07:30:53.887Z,100.00
2022-11-09T07:41:00.547Z,100.00
2022-11-09T07:51:04.434Z,100.00
2022-11-09T08:01:10.432Z,100.00
2022-11-09T08:11:12.641Z,100.00
2022-11-09T08:21:17.087Z,100.00
2022-11-09T08:31:21.827Z,100.00
2022-11-09T08:41:26.951Z,100.00
2022-11-09T08:51:29.156Z,100.00
2022-11-09T09:01:31.280Z,100.00
2022-11-09T09:11:33.376Z,100.00
2022-11-09T09:21:35.375Z,100.00
2022-11-09T09:31:37.573Z,100.00
2022-11-09T09:41:47.517Z,100.00
2022-11-09T09:51:55.470Z,100.00
2022-11-09T10:01:58.690Z,100.00
2022-11-09T10:12:05.670Z,100.00
2022-11-09T10:22:17.592Z,100.00
2022-11-09T10:32:24.775Z,100.00
2022-11-09T10:42:32.539Z,100.00
2022-11-09T10:53:18.617Z,100.00
2022-11-09T11:03:42.704Z,100.00
2022-11-09T11:14:22.696Z,100.00
2022-11-09T11:24:52.994Z,100.00
2022-11-09T11:35:17.075Z,100.00
2022-11-09T11:45:50.010Z,100.00
2022-11-09T11:56:39.184Z,99.19
2022-11-09T12:07:12.239Z,98.71
2022-11-09T12:17:55.204Z,98.36
2022-11-09T12:28:40.453Z,96.15
2022-11-09T12:39:07.542Z,95.32
2022-11-09T12:49:42.040Z,94.12
2022-11-09T13:00:03.342Z,93.61
2022-11-09T13:10:35.711Z,91.15
2022-11-09T13:20:57.611Z,90.36
2022-11-09T13:31:57.121Z,90.87
2022-11-09T13:42:33.809Z,91.35
2022-11-09T13:52:58.101Z,91.30
2022-11-09T14:03:23.148Z,91.70
2022-11-09T14:14:02.205Z,91.49
2022-11-09T14:24:35.180Z,91.83
2022-11-09T14:35:22.493Z,92.09
2022-11-09T14:45:53.468Z,92.83
2022-11-09T14:56:23.173Z,93.36
2022-11-09T15:07:18.028Z,94.40
2022-11-09T15:17:40.373Z,94.77
2022-11-09T15:28:08.960Z,95.40
2022-11-09T15:38:42.774Z,96.31
2022-11-09T15:49:15.737Z,97.51
2022-11-09T15:59:36.583Z,97.80
2022-11-09T16:09:59.540Z,98.54
2022-11-09T16:20:26.557Z,99.52
2022-11-09T16:30:47.597Z,100.00
2022-11-09T16:41:11.951Z,100.00
2022-11-09T16:51:40.360Z,100.00
2022-11-09T17:02:01.554Z,100.00
2022-11-09T17:12:22.449Z,100.00
2022-11-09T17:22:46.240Z,100.00
2022-11-09T17:33:09.593Z,100.00
2022-11-09T17:43:37.682Z,100.00
2022-11-09T17:53:58.450Z,100.00
2022-11-09T18:04:19.350Z,100.00
2022-11-09T18:14:41.883Z,100.00
2022-11-09T18:25:02.399Z,100.00
2022-11-09T18:35:23.599Z,100.00
2022-11-09T18:45:56.561Z,100.00
2022-11-09T18:56:26.814Z,100.00
2022-11-09T19:06:48.839Z,100.00
2022-11-09T19:17:15.730Z,100.00
2022-11-09T19:27:37.689Z,100.00
2022-11-09T19:38:03.680Z,100.00
2022-11-09T19:48:29.276Z,100.00
2022-11-09T19:58:51.724Z,100.00
2022-11-09T20:09:13.237Z,100.00
2022-11-09T20:19:33.771Z,100.00
2022-11-09T20:29:55.886Z,100.00
2022-11-09T20:40:16.929Z,100.00
2022-11-09T20:50:38.223Z,100.00
2022-11-09T21:01:12.271Z,100.00
2022-11-09T21:11:56.350Z,100.00
2022-11-09T21:22:24.618Z,100.00
2022-11-09T21:32:45.383Z,100.00
2022-11-09T21:43:14.172Z,100.00
2022-11-09T21:53:41.203Z,100.00
2022-11-09T22:04:04.352Z,100.00
2022-11-09T22:14:44.106Z,100.00
2022-11-09T22:25:13.843Z,100.00
2022-11-09T22:35:34.792Z,100.00
2022-11-09T22:46:06.299Z,100.00
2022-11-09T22:56:31.988Z,100.00
2022-11-09T23:06:52.884Z,100.00
2022-11-09T23:17:39.028Z,100.00
2022-11-09T23:28:03.366Z,100.00
2022-11-09T23:38:32.032Z,100.00
2022-11-09T23:48:53.262Z,100.00
2022-11-09T23:59:14.235Z,100.00
